createdAt,value
2023-04-09T00:01:26.493Z,100.00
2023-04-09T00:03:54.516Z,100.00
2023-04-09T00:06:22.614Z,100.00
2023-04-09T00:08:50.909Z,100.00
2023-04-09T00:11:21.681Z,100.00
2023-04-09T00:13:51.170Z,100.00
2023-04-09T00:16:19.402Z,100.00
2023-04-09T00:18:47.520Z,100.00
2023-04-09T00:21:16.300Z,100.00
2023-04-09T00:23:44.396Z,100.00
2023-04-09T00:26:12.483Z,100.00
2023-04-09T00:28:40.645Z,100.00
2023-04-09T00:31:10.857Z,100.00
2023-04-09T00:33:39.000Z,100.00
2023-04-09T00:36:07.500Z,100.00
2023-04-09T00:38:35.704Z,100.00
2023-04-09T00:41:03.729Z,100.00
2023-04-09T00:43:31.920Z,100.00
2023-04-09T00:46:00.840Z,100.00
2023-04-09T00:48:30.568Z,100.00
2023-04-09T00:50:58.700Z,100.00
2023-04-09T00:53:26.926Z,100.00
2023-04-09T00:55:56.251Z,100.00
2023-04-09T00:58:24.353Z,100.00
2023-04-09T01:00:52.576Z,100.00
2023-04-09T01:03:20.972Z,100.00
2023-04-09T01:05:57.745Z,100.00
2023-04-09T01:08:34.511Z,100.00
2023-04-09T01:11:11.211Z,100.00
2023-04-09T01:13:48.565Z,100.00
2023-04-09T01:16:18.118Z,100.00
2023-04-09T01:18:53.786Z,100.00
2023-04-09T01:21:27.660Z,100.00
2023-04-09T01:24:02.185Z,100.00
2023-04-09T01:26:42.723Z,100.00
2023-04-09T01:29:12.336Z,100.00
2023-04-09T01:31:43.202Z,100.00
2023-04-09T01:34:15.766Z,100.00
2023-04-09T01:36:47.661Z,100.00
2023-04-09T01:39:15.830Z,100.00
2023-04-09T01:41:44.483Z,100.00
2023-04-09T01:44:14.795Z,100.00
2023-04-09T01:46:43.595Z,100.00
2023-04-09T01:49:12.591Z,100.00
2023-04-09T01:51:40.981Z,100.00
2023-04-09T01:54:11.659Z,100.00
2023-04-09T01:56:43.952Z,100.00
2023-04-09T01:59:14.346Z,100.00
2023-04-09T02:01:47.314Z,100.00
2023-04-09T02:04:24.102Z,100.00
2023-04-09T02:07:00.566Z,100.00
2023-04-09T02:09:32.226Z,100.00
2023-04-09T02:12:03.911Z,100.00
2023-04-09T02:14:34.484Z,100.00
2023-04-09T02:17:03.331Z,100.00
2023-04-09T02:19:40.680Z,100.00
2023-04-09T02:22:09.171Z,100.00
2023-04-09T02:24:37.580Z,100.00
2023-04-09T02:27:06.219Z,100.00
2023-04-09T02:29:38.078Z,100.00
2023-04-09T02:32:06.776Z,100.00
2023-04-09T02:34:35.261Z,100.00
2023-04-09T02:37:05.645Z,100.00
2023-04-09T02:39:33.854Z,100.00
2023-04-09T02:42:02.318Z,100.00
2023-04-09T02:44:30.382Z,100.00
2023-04-09T02:46:59.795Z,100.00
2023-04-09T02:49:27.802Z,100.00
2023-04-09T02:51:55.923Z,100.00
2023-04-09T02:54:26.256Z,100.00
2023-04-09T02:56:54.322Z,100.00
2023-04-09T02:59:22.371Z,100.00
2023-04-09T03:01:50.719Z,100.00
2023-04-09T03:04:20.484Z,100.00
2023-04-09T03:06:48.535Z,100.00
2023-04-09T03:09:16.650Z,100.00
2023-04-09T03:11:44.724Z,100.00
2023-04-09T03:14:15.955Z,100.00
2023-04-09T03:16:44.128Z,100.00
2023-04-09T03:19:12.306Z,100.00
2023-04-09T03:21:42.137Z,100.00
2023-04-09T03:24:10.170Z,100.00
2023-04-09T03:26:38.507Z,100.00
2023-04-09T03:29:07.611Z,100.00
2023-04-09T03:31:35.674Z,100.00
2023-04-09T03:34:03.763Z,100.00
2023-04-09T03:36:32.832Z,100.00
2023-04-09T03:39:02.233Z,100.00
2023-04-09T03:41:30.329Z,100.00
2023-04-09T03:43:58.407Z,100.00
2023-04-09T03:46:26.476Z,100.00
2023-04-09T03:48:54.859Z,100.00
2023-04-09T03:51:23.149Z,100.00
2023-04-09T03:53:51.384Z,100.00
2023-04-09T03:56:20.832Z,100.00
2023-04-09T03:58:49.853Z,100.00
2023-04-09T04:01:18.040Z,100.00
2023-04-09T04:03:46.301Z,100.00
2023-04-09T04:06:14.551Z,100.00
2023-04-09T04:08:42.720Z,100.00
2023-04-09T04:11:10.779Z,100.00
2023-04-09T04:13:40.365Z,100.00
2023-04-09T04:16:09.743Z,100.00
2023-04-09T04:18:38.494Z,100.00
2023-04-09T04:21:07.243Z,100.00
2023-04-09T04:23:35.825Z,100.00
2023-04-09T04:26:09.992Z,100.00
2023-04-09T04:28:38.476Z,100.00
2023-04-09T04:31:11.092Z,100.00
2023-04-09T04:33:40.787Z,100.00
2023-04-09T04:36:09.999Z,100.00
2023-04-09T04:38:38.663Z,100.00
2023-04-09T04:41:07.328Z,100.00
2023-04-09T04:43:35.584Z,100.00
2023-04-09T04:46:03.748Z,100.00
2023-04-09T04:48:33.264Z,100.00
2023-04-09T04:51:02.492Z,100.00
2023-04-09T04:53:30.606Z,100.00
2023-04-09T04:55:58.682Z,100.00
2023-04-09T04:58:27.040Z,100.00
2023-04-09T05:00:55.143Z,100.00
2023-04-09T05:03:27.485Z,100.00
2023-04-09T05:06:00.038Z,100.00
2023-04-09T05:08:28.082Z,100.00
2023-04-09T05:10:56.799Z,100.00
2023-04-09T05:13:25.043Z,100.00
2023-04-09T05:15:53.098Z,100.00
2023-04-09T05:18:21.137Z,100.00
2023-04-09T05:20:49.176Z,100.00
2023-04-09T05:23:18.621Z,100.00
2023-04-09T05:25:46.681Z,100.00
2023-04-09T05:28:16.815Z,100.00
2023-04-09T05:30:47.859Z,100.00
2023-04-09T05:33:16.088Z,100.00
2023-04-09T05:35:44.162Z,100.00
2023-04-09T05:38:13.598Z,100.00
2023-04-09T05:40:45.081Z,100.00
2023-04-09T05:43:13.151Z,100.00
2023-04-09T05:45:41.420Z,100.00
2023-04-09T05:48:09.632Z,100.00
2023-04-09T05:50:51.151Z,100.00
2023-04-09T05:53:23.024Z,100.00
2023-04-09T05:55:52.377Z,100.00
2023-04-09T05:58:20.703Z,100.00
2023-04-09T06:00:48.998Z,100.00
2023-04-09T06:03:17.158Z,100.00
2023-04-09T06:05:46.713Z,100.00
2023-04-09T06:08:15.226Z,100.00
2023-04-09T06:10:43.256Z,100.00
2023-04-09T06:13:12.816Z,100.00
2023-04-09T06:15:41.278Z,100.00
2023-04-09T06:18:09.472Z,100.00
2023-04-09T06:20:37.597Z,100.00
2023-04-09T06:23:06.322Z,100.00
2023-04-09T06:25:34.510Z,100.00
2023-04-09T06:28:03.116Z,100.00
2023-04-09T06:30:32.887Z,100.00
2023-04-09T06:33:01.061Z,100.00
2023-04-09T06:35:29.229Z,100.00
2023-04-09T06:37:57.233Z,100.00
2023-04-09T06:40:25.281Z,100.00
2023-04-09T06:42:53.378Z,100.00
2023-04-09T06:45:21.623Z,100.00
2023-04-09T06:47:51.402Z,100.00
2023-04-09T06:50:19.710Z,100.00
2023-04-09T06:52:47.726Z,100.00
2023-04-09T06:55:15.880Z,100.00
2023-04-09T06:57:44.008Z,100.00
2023-04-09T07:00:13.164Z,100.00
2023-04-09T07:02:41.843Z,100.00
2023-04-09T07:05:12.048Z,100.00
2023-04-09T07:07:40.109Z,100.00
2023-04-09T07:10:09.565Z,100.00
2023-04-09T07:12:37.586Z,100.00
2023-04-09T07:15:07.544Z,100.00
2023-04-09T07:17:35.849Z,100.00
2023-04-09T07:20:04.083Z,100.00
2023-04-09T07:22:33.601Z,100.00
2023-04-09T07:25:01.628Z,100.00
2023-04-09T07:27:30.261Z,100.00
2023-04-09T07:30:01.579Z,100.00
2023-04-09T07:32:29.974Z,100.00
2023-04-09T07:34:59.446Z,100.00
2023-04-09T07:37:28.201Z,100.00
2023-04-09T07:39:57.901Z,100.00
2023-04-09T07:42:26.032Z,100.00
2023-04-09T07:44:54.042Z,100.00
2023-04-09T07:47:22.808Z,100.00
2023-04-09T07:49:50.965Z,100.00
2023-04-09T07:52:19.621Z,100.00
2023-04-09T07:54:50.826Z,100.00
2023-04-09T07:57:20.275Z,100.00
2023-04-09T07:59:48.387Z,100.00
2023-04-09T08:02:19.024Z,100.00
2023-04-09T08:04:49.783Z,100.00
2023-04-09T08:07:20.105Z,100.00
2023-04-09T08:09:48.155Z,100.00
2023-04-09T08:12:20.488Z,100.00
2023-04-09T08:14:48.676Z,100.00
2023-04-09T08:17:16.869Z,100.00
2023-04-09T08:19:44.963Z,100.00
2023-04-09T08:22:15.727Z,100.00
2023-04-09T08:24:43.962Z,100.00
2023-04-09T08:27:12.148Z,100.00
2023-04-09T08:29:42.653Z,100.00
2023-04-09T08:32:10.708Z,100.00
2023-04-09T08:34:38.997Z,100.00
2023-04-09T08:37:07.123Z,100.00
2023-04-09T08:39:36.301Z,100.00
2023-04-09T08:42:07.861Z,100.00
2023-04-09T08:44:36.010Z,100.00
2023-04-09T08:47:11.645Z,100.00
2023-04-09T08:49:41.888Z,100.00
2023-04-09T08:52:09.974Z,100.00
2023-04-09T08:54:40.530Z,100.00
2023-04-09T08:57:09.190Z,100.00
2023-04-09T08:59:38.009Z,100.00
2023-04-09T09:02:11.876Z,100.00
2023-04-09T09:04:47.370Z,100.00
2023-04-09T09:07:16.186Z,100.00
2023-04-09T09:09:55.702Z,100.00
2023-04-09T09:12:33.976Z,96.98
2023-04-09T09:15:02.316Z,99.86
2023-04-09T09:17:31.934Z,100.00
2023-04-09T09:20:00.167Z,100.00
2023-04-09T09:22:28.215Z,94.36
2023-04-09T09:24:57.505Z,91.41
2023-04-09T09:27:39.366Z,88.97
2023-04-09T09:30:10.519Z,89.77
2023-04-09T09:32:40.043Z,93.71
2023-04-09T09:35:09.189Z,91.21
2023-04-09T09:37:37.184Z,90.02
2023-04-09T09:40:06.049Z,89.97
2023-04-09T09:42:34.211Z,88.70
2023-04-09T09:45:05.273Z,89.78
2023-04-09T09:47:36.683Z,86.27
2023-04-09T09:50:07.574Z,87.97
2023-04-09T09:52:36.218Z,89.72
2023-04-09T09:55:07.912Z,84.48
2023-04-09T09:57:40.585Z,81.51
2023-04-09T10:00:10.195Z,83.59
2023-04-09T10:02:45.015Z,85.64
2023-04-09T10:05:15.660Z,78.68
2023-04-09T10:07:44.967Z,77.85
2023-04-09T10:10:13.288Z,78.07
2023-04-09T10:12:42.510Z,70.88
2023-04-09T10:15:13.295Z,71.31
2023-04-09T10:17:42.603Z,73.32
2023-04-09T10:20:16.943Z,67.92
2023-04-09T10:22:49.421Z,73.88
2023-04-09T10:25:18.203Z,73.90
2023-04-09T10:27:48.987Z,65.02
2023-04-09T10:30:34.922Z,62.16
2023-04-09T10:33:12.998Z,62.71
2023-04-09T10:35:42.739Z,59.54
2023-04-09T10:38:15.894Z,58.96
2023-04-09T10:40:49.533Z,55.60
2023-04-09T10:43:21.193Z,58.59
2023-04-09T10:45:53.394Z,55.27
2023-04-09T10:48:22.039Z,58.16
2023-04-09T10:50:52.397Z,55.24
2023-04-09T10:53:24.994Z,53.91
2023-04-09T10:55:53.701Z,53.66
2023-04-09T10:58:22.121Z,55.87
2023-04-09T11:00:51.364Z,56.36
2023-04-09T11:03:30.556Z,58.48
2023-04-09T11:06:03.565Z,55.01
2023-04-09T11:08:33.450Z,55.51
2023-04-09T11:11:02.493Z,51.49
2023-04-09T11:13:31.772Z,50.44
2023-04-09T11:16:01.352Z,49.46
2023-04-09T11:18:31.569Z,49.29
2023-04-09T11:21:03.215Z,51.65
2023-04-09T11:23:34.775Z,49.93
2023-04-09T11:26:03.053Z,49.13
2023-04-09T11:28:31.122Z,50.86
2023-04-09T11:30:59.142Z,49.56
2023-04-09T11:33:33.735Z,46.93
2023-04-09T11:36:05.870Z,47.87
2023-04-09T11:38:33.963Z,46.63
2023-04-09T11:41:03.077Z,45.56
2023-04-09T11:43:31.115Z,44.71
2023-04-09T11:46:00.105Z,44.94
2023-04-09T11:48:28.340Z,46.64
2023-04-09T11:50:56.584Z,45.92
2023-04-09T11:53:32.239Z,46.64
2023-04-09T11:56:00.789Z,46.49
2023-04-09T11:58:28.905Z,46.40
2023-04-09T12:00:59.379Z,44.48
2023-04-09T12:03:33.869Z,45.25
2023-04-09T12:06:03.947Z,44.86
2023-04-09T12:08:35.907Z,46.63
2023-04-09T12:11:11.325Z,43.29
2023-04-09T12:13:43.143Z,47.62
2023-04-09T12:16:11.985Z,48.07
2023-04-09T12:18:40.708Z,46.91
2023-04-09T12:21:08.949Z,46.34
2023-04-09T12:23:38.580Z,47.39
2023-04-09T12:26:06.688Z,48.95
2023-04-09T12:28:34.714Z,48.53
2023-04-09T12:31:06.041Z,46.64
2023-04-09T12:33:34.133Z,48.40
2023-04-09T12:36:02.488Z,47.94
2023-04-09T12:38:30.705Z,49.85
2023-04-09T12:41:01.272Z,47.94
2023-04-09T12:43:29.456Z,48.19
2023-04-09T12:45:58.070Z,48.33
2023-04-09T12:48:26.543Z,48.68
2023-04-09T12:50:56.842Z,48.55
2023-04-09T12:53:24.900Z,48.25
2023-04-09T12:55:55.157Z,48.79
2023-04-09T12:58:27.449Z,47.19
2023-04-09T13:00:56.922Z,46.86
2023-04-09T13:03:25.777Z,46.41
2023-04-09T13:05:54.070Z,46.38
2023-04-09T13:08:22.081Z,46.09
2023-04-09T13:10:50.141Z,45.70
2023-04-09T13:13:18.174Z,46.49
2023-04-09T13:15:47.601Z,47.30
2023-04-09T13:18:15.704Z,46.32
2023-04-09T13:20:43.892Z,44.86
2023-04-09T13:23:11.932Z,45.19
2023-04-09T13:25:40.109Z,46.43
2023-04-09T13:28:08.350Z,45.83
2023-04-09T13:30:38.692Z,43.62
2023-04-09T13:33:08.133Z,44.35
2023-04-09T13:35:36.314Z,45.44
2023-04-09T13:38:04.413Z,44.55
2023-04-09T13:40:32.636Z,44.07
2023-04-09T13:43:00.720Z,46.92
2023-04-09T13:45:28.747Z,47.43
2023-04-09T13:47:56.839Z,47.02
2023-04-09T13:50:26.440Z,45.15
2023-04-09T13:52:54.476Z,44.83
2023-04-09T13:55:22.470Z,46.21
2023-04-09T13:57:50.532Z,46.10
2023-04-09T14:00:21.453Z,45.14
2023-04-09T14:02:49.644Z,45.96
2023-04-09T14:05:21.474Z,45.89
2023-04-09T14:07:51.069Z,44.69
2023-04-09T14:10:19.298Z,43.49
2023-04-09T14:12:47.491Z,45.26
2023-04-09T14:15:15.491Z,45.52
2023-04-09T14:17:44.855Z,44.88
2023-04-09T14:20:13.107Z,46.74
2023-04-09T14:22:43.173Z,47.79
2023-04-09T14:25:13.594Z,47.82
2023-04-09T14:27:41.784Z,46.79
2023-04-09T14:30:14.465Z,46.07
2023-04-09T14:32:43.365Z,44.76
2023-04-09T14:35:13.670Z,46.26
2023-04-09T14:37:41.823Z,46.07
2023-04-09T14:40:10.517Z,46.76
2023-04-09T14:42:40.534Z,45.82
2023-04-09T14:45:09.362Z,45.61
2023-04-09T14:47:37.594Z,45.74
2023-04-09T14:50:06.238Z,47.75
2023-04-09T14:52:34.399Z,46.89
2023-04-09T14:55:02.454Z,44.48
2023-04-09T14:57:31.361Z,45.71
2023-04-09T15:00:01.194Z,45.45
2023-04-09T15:02:29.380Z,47.34
2023-04-09T15:04:57.760Z,46.33
2023-04-09T15:07:26.011Z,46.33
2023-04-09T15:09:54.006Z,47.51
2023-04-09T15:12:22.042Z,47.37
2023-04-09T15:14:50.094Z,47.20
2023-04-09T15:17:19.544Z,47.89
2023-04-09T15:19:47.924Z,47.88
2023-04-09T15:22:18.989Z,46.83
2023-04-09T15:24:47.001Z,47.06
2023-04-09T15:27:15.144Z,47.58
2023-04-09T15:29:43.312Z,48.05
2023-04-09T15:32:11.727Z,48.36
2023-04-09T15:34:43.770Z,48.19
2023-04-09T15:37:11.941Z,48.25
2023-04-09T15:39:40.012Z,49.70
2023-04-09T15:42:12.771Z,49.15
2023-04-09T15:44:42.504Z,49.81
2023-04-09T15:47:10.551Z,50.01
2023-04-09T15:49:38.959Z,51.67
2023-04-09T15:52:08.540Z,51.11
2023-04-09T15:54:36.565Z,52.52
2023-04-09T15:57:05.132Z,52.14
2023-04-09T15:59:33.444Z,53.13
2023-04-09T16:02:01.577Z,53.86
2023-04-09T16:04:29.725Z,53.17
2023-04-09T16:06:57.844Z,54.00
2023-04-09T16:09:29.779Z,53.74
2023-04-09T16:11:58.099Z,54.42
2023-04-09T16:14:28.342Z,54.67
2023-04-09T16:16:56.496Z,54.74
2023-04-09T16:19:25.191Z,55.22
2023-04-09T16:21:55.783Z,56.52
2023-04-09T16:24:23.803Z,55.82
2023-04-09T16:26:53.192Z,56.48
2023-04-09T16:29:21.272Z,57.22
2023-04-09T16:31:49.348Z,57.29
2023-04-09T16:34:17.509Z,56.51
2023-04-09T16:36:45.538Z,58.18
2023-04-09T16:39:15.293Z,58.36
2023-04-09T16:41:44.191Z,58.53
2023-04-09T16:44:13.778Z,57.33
2023-04-09T16:46:42.892Z,56.86
2023-04-09T16:49:11.088Z,57.62
2023-04-09T16:51:41.379Z,56.75
2023-04-09T16:54:09.475Z,57.95
2023-04-09T16:56:37.616Z,58.62
2023-04-09T16:59:05.688Z,58.55
2023-04-09T17:01:38.436Z,59.51
2023-04-09T17:04:06.797Z,58.00
2023-04-09T17:06:34.894Z,58.48
2023-04-09T17:09:05.303Z,58.52
2023-04-09T17:11:33.728Z,59.19
2023-04-09T17:14:01.762Z,59.85
2023-04-09T17:16:29.822Z,59.84
2023-04-09T17:18:59.389Z,61.11
2023-04-09T17:21:27.566Z,61.21
2023-04-09T17:23:56.032Z,61.59
2023-04-09T17:26:24.716Z,62.16
2023-04-09T17:28:52.842Z,63.46
2023-04-09T17:31:24.210Z,64.35
2023-04-09T17:33:53.026Z,65.70
2023-04-09T17:36:22.972Z,66.08
2023-04-09T17:38:54.651Z,65.54
2023-04-09T17:41:22.970Z,66.17
2023-04-09T17:43:51.111Z,66.75
2023-04-09T17:46:19.574Z,67.05
2023-04-09T17:48:47.670Z,68.27
2023-04-09T17:51:20.781Z,68.93
2023-04-09T17:53:50.204Z,69.26
2023-04-09T17:56:19.065Z,69.84
2023-04-09T17:58:47.787Z,70.20
2023-04-09T18:01:15.992Z,70.58
2023-04-09T18:03:46.040Z,71.23
2023-04-09T18:06:17.491Z,71.63
2023-04-09T18:08:45.687Z,72.73
2023-04-09T18:11:15.630Z,73.21
2023-04-09T18:13:43.700Z,73.75
2023-04-09T18:16:12.652Z,74.12
2023-04-09T18:18:41.389Z,75.26
2023-04-09T18:21:09.514Z,76.56
2023-04-09T18:23:39.515Z,76.49
2023-04-09T18:26:07.895Z,77.12
2023-04-09T18:28:37.382Z,78.08
2023-04-09T18:31:05.949Z,78.82
2023-04-09T18:33:34.260Z,79.03
2023-04-09T18:36:03.152Z,79.38
2023-04-09T18:38:31.699Z,80.01
2023-04-09T18:41:01.254Z,79.74
2023-04-09T18:43:29.309Z,80.29
2023-04-09T18:45:59.254Z,80.59
2023-04-09T18:48:27.301Z,80.24
2023-04-09T18:50:55.349Z,81.58
2023-04-09T18:53:23.454Z,81.24
2023-04-09T18:55:51.511Z,81.97
2023-04-09T18:58:19.578Z,82.46
2023-04-09T19:00:51.551Z,84.14
2023-04-09T19:03:21.622Z,84.00
2023-04-09T19:05:49.861Z,85.49
2023-04-09T19:08:17.925Z,85.06
2023-04-09T19:10:47.588Z,85.44
2023-04-09T19:13:15.620Z,86.86
2023-04-09T19:15:43.685Z,88.41
2023-04-09T19:18:11.732Z,89.05
2023-04-09T19:20:43.513Z,91.51
2023-04-09T19:23:11.628Z,92.48
2023-04-09T19:25:39.721Z,93.41
2023-04-09T19:28:07.863Z,92.58
2023-04-09T19:30:35.974Z,92.99
2023-04-09T19:33:04.178Z,95.28
2023-04-09T19:35:37.985Z,95.80
2023-04-09T19:38:08.522Z,100.00
2023-04-09T19:40:36.789Z,100.00
2023-04-09T19:43:04.797Z,100.00
2023-04-09T19:45:32.928Z,100.00
2023-04-09T19:48:01.419Z,100.00
2023-04-09T19:50:29.686Z,100.00
2023-04-09T19:52:57.786Z,100.00
2023-04-09T19:55:27.241Z,100.00
2023-04-09T19:57:55.322Z,100.00
2023-04-09T20:00:23.506Z,100.00
2023-04-09T20:02:51.792Z,100.00
2023-04-09T20:05:21.146Z,100.00
2023-04-09T20:07:49.406Z,100.00
2023-04-09T20:10:17.783Z,100.00
2023-04-09T20:12:49.827Z,100.00
2023-04-09T20:15:20.386Z,100.00
2023-04-09T20:17:48.808Z,100.00
2023-04-09T20:20:19.802Z,100.00
2023-04-09T20:22:55.460Z,100.00
2023-04-09T20:25:24.897Z,100.00
2023-04-09T20:27:55.918Z,100.00
2023-04-09T20:30:24.128Z,100.00
2023-04-09T20:32:52.348Z,100.00
2023-04-09T20:35:20.936Z,100.00
2023-04-09T20:37:51.434Z,100.00
2023-04-09T20:40:19.520Z,100.00
2023-04-09T20:42:47.685Z,100.00
2023-04-09T20:45:17.156Z,100.00
2023-04-09T20:47:45.407Z,100.00
2023-04-09T20:50:13.492Z,100.00
2023-04-09T20:52:44.826Z,100.00
2023-04-09T20:55:12.894Z,100.00
2023-04-09T20:57:41.450Z,100.00
2023-04-09T21:00:11.144Z,100.00
2023-04-09T21:02:41.825Z,100.00
2023-04-09T21:05:21.739Z,100.00
2023-04-09T21:07:52.228Z,100.00
2023-04-09T21:10:20.356Z,100.00
2023-04-09T21:12:48.528Z,100.00
2023-04-09T21:15:16.892Z,100.00
2023-04-09T21:17:46.375Z,100.00
2023-04-09T21:20:15.215Z,100.00
2023-04-09T21:22:43.360Z,100.00
2023-04-09T21:25:13.804Z,100.00
2023-04-09T21:27:43.267Z,100.00
2023-04-09T21:30:11.906Z,100.00
2023-04-09T21:32:40.198Z,100.00
2023-04-09T21:35:09.893Z,100.00
2023-04-09T21:37:38.374Z,100.00
2023-04-09T21:40:10.349Z,100.00
2023-04-09T21:42:38.566Z,100.00
2023-04-09T21:45:07.854Z,100.00
2023-04-09T21:47:36.107Z,100.00
2023-04-09T21:50:04.538Z,100.00
2023-04-09T21:52:36.391Z,100.00
2023-04-09T21:55:04.712Z,100.00
2023-04-09T21:57:35.017Z,100.00
2023-04-09T22:00:03.638Z,100.00
2023-04-09T22:02:31.969Z,100.00
2023-04-09T22:05:00.410Z,100.00
2023-04-09T22:07:28.569Z,100.00
2023-04-09T22:09:58.201Z,100.00
2023-04-09T22:12:26.275Z,100.00
2023-04-09T22:14:54.296Z,100.00
2023-04-09T22:17:22.441Z,100.00
2023-04-09T22:19:51.157Z,100.00
2023-04-09T22:22:19.194Z,100.00
2023-04-09T22:24:47.262Z,100.00
2023-04-09T22:27:16.706Z,100.00
2023-04-09T22:29:44.809Z,100.00
2023-04-09T22:32:12.838Z,100.00
2023-04-09T22:34:40.898Z,100.00
2023-04-09T22:37:09.046Z,100.00
2023-04-09T22:39:37.164Z,100.00
2023-04-09T22:42:05.188Z,100.00
2023-04-09T22:44:34.679Z,100.00
2023-04-09T22:47:02.710Z,100.00
2023-04-09T22:49:31.187Z,100.00
2023-04-09T22:51:59.296Z,100.00
2023-04-09T22:54:27.366Z,100.00
2023-04-09T22:56:56.802Z,100.00
2023-04-09T22:59:30.465Z,100.00
2023-04-09T23:02:08.723Z,100.00
2023-04-09T23:04:37.174Z,100.00
2023-04-09T23:07:05.313Z,100.00
2023-04-09T23:09:33.408Z,100.00
2023-04-09T23:12:02.454Z,100.00
2023-04-09T23:14:30.493Z,100.00
2023-04-09T23:16:59.026Z,100.00
2023-04-09T23:19:28.513Z,100.00
2023-04-09T23:21:56.538Z,100.00
2023-04-09T23:24:24.636Z,100.00
2023-04-09T23:26:52.673Z,100.00
2023-04-09T23:29:20.819Z,100.00
2023-04-09T23:31:48.874Z,100.00
2023-04-09T23:34:17.051Z,100.00
2023-04-09T23:36:46.429Z,100.00
2023-04-09T23:39:14.493Z,100.00
2023-04-09T23:41:42.709Z,100.00
2023-04-09T23:44:10.782Z,100.00
2023-04-09T23:46:39.004Z,100.00
2023-04-09T23:49:07.222Z,100.00
2023-04-09T23:51:35.257Z,100.00
2023-04-09T23:54:04.804Z,100.00
2023-04-09T23:56:32.898Z,100.00
2023-04-09T23:59:00.934Z,100.00
